Port-aux-Basques, Canada
Current Conditions -  °F | °C
As of 10:00 AM on Thursday 27 Nov 2014 (Local Time) from CWZB Reporting Station
Moderate Rain Moderate Rain  
Wind Chill: 18°   Ceiling: 800
Heat Index: 34°   Visibility: 4mi
Dew Point: 33°   Wind: 41mph
Humidity: 96%   Direction: 80°E
Pressure: 29.54"   Gusts: 52mph
Location:  47.57°N, 59.14°W
Report Text: CWZB 271300Z AUTO 08036G45KT 4SM RA OVC008 OVC070 OVC080 01/00 A2954 RMK SLP005 PK WND 10045/// T00090004 P0012 70110 WSI/SWOB
Loading
Personal Weather Stations






























Interactive Weather Map New forecast layout! Learn more

10-Day Weather Forecast

Advertisements
Track Severe Weather on mobile